This is the latest recevied weather packets stored in our database for station/object IW1QNQ-13. If no packets are shown the sender has not sent any weather packets the latest 10 day(s).
| Time | Temp. | Humidity | Pressure | Rain* | Wind** | Luminosity | Snow |
|---|---|---|---|---|---|---|---|
| 1787769892 | 25.56° C | 68% | 1021.2 hPa | - | - | - | - |
| 1787768691 | 25.56° C | 70% | 1021.1 hPa | - | - | - | - |
| 1787767490 | 26.11° C | 71% | 1021.3 hPa | - | - | - | - |
| 1787766290 | 26.11° C | 71% | 1021.6 hPa | - | - | - | - |
| 1787765089 | 26.67° C | 70% | 1021.8 hPa | - | - | - | - |
| 1787763888 | 26.67° C | 69% | 1021.6 hPa | - | - | - | - |
| 1787762687 | 27.22° C | 68% | 1021.5 hPa | - | - | - | - |
| 1787761486 | 27.22° C | 68% | 1021.4 hPa | - | - | - | - |
| 1787760285 | 27.78° C | 67% | 1021.4 hPa | - | - | - | - |
| 1787757884 | 28.89° C | 62% | 1021.2 hPa | - | - | - | - |
| 1787756683 | 28.33° C | 64% | 1021.5 hPa | - | - | - | - |
| 1787755482 | 28.33° C | 64% | 1021.9 hPa | - | - | - | - |
| 1787754281 | 28.89° C | 65% | 1022.1 hPa | - | - | - | - |
| 1787753080 | 30.56° C | 65% | 1021.9 hPa | - | - | - | - |
| 1787751894 | 29.44° C | 63% | 1022.2 hPa | - | - | - | - |
| 1787750693 | 28.33° C | 63% | 1021.5 hPa | - | - | - | - |
| 1787749492 | 30° C | 63% | 1022.3 hPa | - | - | - | - |
| 1787748291 | 28.89° C | 65% | 1022.4 hPa | - | - | - | - |
| 1787747090 | 29.44° C | 64% | 1022.5 hPa | - | - | - | - |
| 1787745889 | 27.78° C | 69% | 1022.5 hPa | - | - | - | - |
| 1787744689 | 30° C | 61% | 1022.5 hPa | - | - | - | - |
| 1787743488 | 28.33° C | 65% | 1022.5 hPa | - | - | - | - |
| 1787742287 | 27.22° C | 70% | 1022.5 hPa | - | - | - | - |
| 1787741087 | 27.78° C | 68% | 1022.5 hPa | - | - | - | - |
| 1787739885 | 27.78° C | 67% | 1022.5 hPa | - | - | - | - |
* Rain since midnight (hover to see other rain measurements)
** Current wind speed in m/s (hover to see current wind gust speed)